Time;durP1;ratioP1;P1;durP2;ratioP2;P2;SDS_P1;SDS_P2;PMS_P1;PMS_P2;Temp;Humidity;BMP_temperature;BMP_pressure;BME280_temperature;BME280_humidity;BME280_pressure;Samples;Min_cycle;Max_cycle;Signal;HPM_P1;HPM_P2
2022/09/23 05:01:33;;;;;;;10.10;6.20;;;6.00;99.90;;;;;;6117349;23;20362;31
2022/09/23 05:04:07;;;;;;;10.60;7.63;;;6.00;99.90;;;;;;6133366;23;20107;-77
2022/09/23 05:06:33;;;;;;;11.52;8.10;;;6.00;99.90;;;;;;6134112;23;20010;-76
2022/09/23 05:09:00;;;;;;;13.20;8.35;;;6.00;99.90;;;;;;6133999;23;20017;-76
2022/09/23 05:11:30;;;;;;;10.10;6.75;;;6.00;99.90;;;;;;6134452;23;19990;-76
2022/09/23 05:13:55;;;;;;;12.00;7.55;;;6.00;99.90;;;;;;6135474;23;20012;-77
2022/09/23 05:16:22;;;;;;;11.38;7.40;;;6.00;99.90;;;;;;6134233;23;20006;-76
2022/09/23 05:18:49;;;;;;;9.60;7.00;;;6.00;99.90;;;;;;6133549;23;20045;-76
2022/09/23 05:21:19;;;;;;;11.10;7.00;;;6.00;99.90;;;;;;6134061;23;20016;-76
2022/09/23 05:23:52;;;;;;;10.05;6.85;;;6.10;99.90;;;;;;6157090;23;20287;-75
2022/09/23 05:26:18;;;;;;;10.73;7.55;;;6.10;99.90;;;;;;6134255;23;20192;-76
2022/09/23 05:28:47;;;;;;;10.35;6.82;;;6.20;99.90;;;;;;6134488;23;20006;-78
2022/09/23 05:31:18;;;;;;;11.18;7.90;;;6.20;99.90;;;;;;6135221;23;20002;-76
2022/09/23 05:33:47;;;;;;;13.65;7.70;;;6.30;99.90;;;;;;6135289;23;20335;-76
2022/09/23 05:36:15;;;;;;;13.63;8.05;;;6.30;99.90;;;;;;6133939;23;20006;-76
2022/09/23 05:38:41;;;;;;;11.77;7.90;;;6.50;99.90;;;;;;6157686;23;20025;-77
2022/09/23 05:41:10;;;;;;;10.15;6.93;;;6.70;99.90;;;;;;6133964;23;20002;-76
2022/09/23 05:43:36;;;;;;;11.55;6.80;;;6.80;99.90;;;;;;6134039;23;20012;-76
2022/09/23 05:46:05;;;;;;;11.82;6.75;;;6.90;99.90;;;;;;6133003;23;20054;-78
2022/09/23 05:48:32;;;;;;;10.32;7.38;;;7.00;99.90;;;;;;6133838;23;20006;-77
2022/09/23 05:50:58;;;;;;;13.93;6.75;;;7.00;99.90;;;;;;6133689;23;20057;-77
2022/09/23 05:53:25;;;;;;;10.65;7.10;;;7.10;99.90;;;;;;6134312;23;20014;-76
2022/09/23 05:55:53;;;;;;;10.45;6.55;;;7.20;99.90;;;;;;6135436;23;20251;-79
2022/09/23 05:58:20;;;;;;;8.37;5.87;;;7.30;99.90;;;;;;6136265;23;20339;-76
2022/09/23 06:00:47;;;;;;;8.80;6.03;;;7.40;99.90;;;;;;6136202;23;20002;-77
2022/09/23 06:03:14;;;;;;;9.73;6.25;;;7.50;99.90;;;;;;6158104;23;20085;-79
2022/09/23 06:05:40;;;;;;;8.85;5.72;;;7.60;99.90;;;;;;6109428;23;20005;-78
2022/09/23 06:08:07;;;;;;;7.28;5.05;;;7.80;99.90;;;;;;6135361;23;20042;-78
2022/09/23 06:10:37;;;;;;;8.88;5.60;;;7.90;99.90;;;;;;6110183;23;20296;-77
2022/09/23 06:13:03;;;;;;;9.32;5.47;;;8.00;99.90;;;;;;6133880;23;20206;-77
2022/09/23 06:15:29;;;;;;;9.27;4.93;;;8.10;99.90;;;;;;6133085;23;20264;-78
2022/09/23 06:17:54;;;;;;;12.00;6.80;;;8.20;99.90;;;;;;6134360;23;20002;-77
2022/09/23 06:20:20;;;;;;;9.05;5.90;;;8.30;99.90;;;;;;6134730;23;19990;-78
2022/09/23 06:22:46;;;;;;;8.80;5.53;;;8.40;99.90;;;;;;6135000;23;20083;-78
2022/09/23 06:25:12;;;;;;;10.75;6.13;;;8.50;99.90;;;;;;6134200;23;20052;-76
2022/09/23 06:27:37;;;;;;;9.50;5.80;;;8.60;99.90;;;;;;6134489;23;20295;-79
2022/09/23 06:30:05;;;;;;;7.47;5.45;;;8.70;99.90;;;;;;6133352;23;20257;-77
2022/09/23 06:32:34;;;;;;;9.38;5.85;;;8.80;99.90;;;;;;6134813;23;20372;-76
2022/09/23 06:35:00;;;;;;;7.82;5.72;;;8.90;99.90;;;;;;6133919;23;20055;-77
2022/09/23 06:37:26;;;;;;;9.00;5.88;;;8.90;99.90;;;;;;6135079;23;20227;-76
2022/09/23 06:39:53;;;;;;;9.98;6.20;;;8.90;99.90;;;;;;6133314;23;20240;-75
2022/09/23 06:42:19;;;;;;;9.52;6.00;;;9.00;99.90;;;;;;6134398;23;20196;-75
2022/09/23 06:44:44;;;;;;;9.32;6.10;;;9.10;99.90;;;;;;6134337;23;20017;-77
2022/09/23 06:47:10;;;;;;;16.00;9.55;;;9.20;99.90;;;;;;6133620;23;20013;-78
2022/09/23 06:49:36;;;;;;;17.70;8.60;;;9.40;99.90;;;;;;6134512;23;20295;-78
2022/09/23 06:52:01;;;;;;;8.35;5.80;;;9.60;99.90;;;;;;6132515;23;20029;-77
2022/09/23 06:54:29;;;;;;;11.77;6.45;;;9.70;99.90;;;;;;6134861;23;19990;-79
2022/09/23 06:56:55;;;;;;;8.90;6.10;;;9.80;99.90;;;;;;6133651;23;20006;-78
2022/09/23 06:59:21;;;;;;;13.02;6.50;;;9.80;99.90;;;;;;6134264;23;20017;-79
2022/09/23 07:01:47;;;;;;;11.00;6.78;;;9.80;99.90;;;;;;6133744;23;20005;-78
2022/09/23 07:04:13;;;;;;;10.65;5.80;;;9.90;99.90;;;;;;6133939;23;20295;-78
2022/09/23 07:06:45;;;;;;;17.30;10.20;;;10.00;99.90;;;;;;6156951;23;20006;-79
2022/09/23 07:09:11;;;;;;;11.35;7.30;;;10.10;99.90;;;;;;6133791;23;20285;-77
2022/09/23 07:11:36;;;;;;;9.77;6.25;;;10.00;99.90;;;;;;6134026;23;20008;-78
2022/09/23 07:14:02;;;;;;;11.88;6.05;;;10.10;99.90;;;;;;6133792;23;20209;-77
2022/09/23 07:16:28;;;;;;;10.55;6.38;;;10.10;99.90;;;;;;6132952;23;20006;-79
2022/09/23 07:18:54;;;;;;;10.52;6.00;;;10.30;99.90;;;;;;6157333;23;20041;-76
2022/09/23 07:21:22;;;;;;;16.25;5.93;;;10.50;99.90;;;;;;6133491;23;20303;-77
2022/09/23 07:23:50;;;;;;;13.48;5.88;;;10.60;99.90;;;;;;6157484;23;20036;-77
2022/09/23 07:26:18;;;;;;;10.23;6.07;;;10.80;99.90;;;;;;6156272;23;20461;-78
2022/09/23 07:28:44;;;;;;;14.18;6.38;;;11.10;99.90;;;;;;6132808;23;20042;-79
2022/09/23 07:31:15;;;;;;;14.13;7.22;;;11.30;99.90;;;;;;6132135;23;20010;-77
2022/09/23 07:33:47;;;;;;;13.80;5.90;;;11.40;99.90;;;;;;6134084;23;20012;-77
2022/09/23 07:36:18;;;;;;;10.43;5.40;;;11.60;99.90;;;;;;6133428;23;20016;-77
2022/09/23 07:38:46;;;;;;;10.10;5.05;;;11.60;99.90;;;;;;6108426;23;20006;-77
2022/09/23 07:41:15;;;;;;;10.90;4.95;;;11.70;99.90;;;;;;6133085;23;20009;-77
2022/09/23 07:43:42;;;;;;;8.48;4.70;;;12.00;99.90;;;;;;6132370;23;20300;-77
2022/09/23 07:46:17;;;;;;;8.18;4.80;;;12.10;99.90;;;;;;6156391;23;20119;-77
2022/09/23 07:48:44;;;;;;;8.70;5.13;;;12.20;99.90;;;;;;6133150;23;20006;-75
2022/09/23 07:51:24;;;;;;;9.35;4.85;;;12.40;99.90;;;;;;6107953;23;20081;-78
2022/09/23 07:53:51;;;;;;;6.55;4.30;;;12.60;99.90;;;;;;6134770;23;20002;-77
2022/09/23 07:56:19;;;;;;;9.48;4.53;;;12.70;99.90;;;;;;6134142;23;20049;-77
2022/09/23 07:58:58;;;;;;;9.75;4.80;;;12.80;99.90;;;;;;6134151;23;19994;-76
2022/09/23 08:01:26;;;;;;;16.38;11.93;;;12.80;99.90;;;;;;6156969;23;20012;-74
2022/09/23 08:03:51;;;;;;;16.35;10.05;;;12.80;99.90;;;;;;6134863;23;20335;-77
2022/09/23 08:06:17;;;;;;;8.63;4.45;;;13.00;99.90;;;;;;6133220;23;20021;-77
2022/09/23 08:08:43;;;;;;;12.20;4.70;;;13.10;99.60;;;;;;6143385;23;20001;-74
2022/09/23 08:11:11;;;;;;;8.50;4.57;;;13.20;99.50;;;;;;6145850;23;19990;-72
2022/09/23 08:13:37;;;;;;;8.93;4.83;;;13.20;99.50;;;;;;6145318;23;20009;-76
2022/09/23 08:16:03;;;;;;;7.90;4.45;;;13.30;99.10;;;;;;6139330;23;20005;-78
2022/09/23 08:18:29;;;;;;;7.22;4.05;;;13.30;99.20;;;;;;6135836;23;20426;-77
2022/09/23 08:23:45;;;;;;;9.77;3.83;;;13.30;99.00;;;;;;6133301;23;20002;-78
2022/09/23 08:26:11;;;;;;;10.25;4.25;;;13.40;99.00;;;;;;6131172;23;20085;-76
2022/09/23 08:28:37;;;;;;;6.53;3.70;;;13.40;98.70;;;;;;6156675;23;20181;-79
2022/09/23 08:31:03;;;;;;;9.18;3.97;;;13.60;98.50;;;;;;6132448;23;20036;-78
2022/09/23 08:33:29;;;;;;;27.50;20.00;;;13.60;98.40;;;;;;6132799;23;20016;-76
2022/09/23 08:36:00;;;;;;;11.88;5.82;;;13.60;98.50;;;;;;6133374;23;20002;-76
2022/09/23 08:38:26;;;;;;;16.23;11.35;;;13.60;98.60;;;;;;6156462;23;20012;-74
2022/09/23 08:41:02;;;;;;;8.52;5.32;;;13.80;98.30;;;;;;6131469;23;20024;-75
2022/09/23 08:43:30;;;;;;;5.38;3.50;;;13.90;98.20;;;;;;6133175;23;20120;-77
2022/09/23 08:46:01;;;;;;;9.35;4.20;;;14.20;97.80;;;;;;6133050;23;20338;-75
2022/09/23 08:48:31;;;;;;;7.47;4.18;;;14.30;97.40;;;;;;6133456;23;20006;-76
2022/09/23 08:51:12;;;;;;;8.25;4.18;;;14.30;97.10;;;;;;6132086;23;20002;-77
2022/09/23 08:53:38;;;;;;;7.85;3.80;;;14.40;96.90;;;;;;6133387;23;20008;-76
2022/09/23 08:56:10;;;;;;;8.77;4.60;;;14.60;96.80;;;;;;6132780;23;20006;-76
2022/09/23 08:58:42;;;;;;;12.23;5.07;;;14.80;96.30;;;;;;6133145;23;20026;-77
2022/09/23 09:01:21;;;;;;;10.05;4.20;;;15.00;96.00;;;;;;6132197;23;20193;-75
2022/09/23 09:04:16;;;;;;;10.07;4.30;;;15.00;95.40;;;;;;6133146;23;20009;-76
2022/09/23 09:06:42;;;;;;;8.40;4.50;;;14.90;95.20;;;;;;6132788;23;20036;-75
2022/09/23 09:09:22;;;;;;;8.35;4.30;;;15.00;95.10;;;;;;6130897;23;20303;-77
2022/09/23 09:11:53;;;;;;;8.70;4.40;;;14.90;94.90;;;;;;6132951;23;19998;-76
2022/09/23 09:14:27;;;;;;;19.23;12.38;;;14.80;95.30;;;;;;6131083;23;20045;-75
2022/09/23 09:16:58;;;;;;;11.90;7.93;;;14.90;95.10;;;;;;6133097;23;20061;-77
2022/09/23 09:19:41;;;;;;;8.93;3.88;;;15.10;95.10;;;;;;6132548;23;20029;-76
2022/09/23 09:22:18;;;;;;;6.43;3.50;;;15.30;94.80;;;;;;6132238;23;20115;-75
2022/09/23 09:24:47;;;;;;;5.57;3.67;;;15.50;94.40;;;;;;6131565;23;19998;-76
2022/09/23 09:27:13;;;;;;;6.53;3.67;;;15.70;94.20;;;;;;6155399;23;20231;-75
2022/09/23 09:29:47;;;;;;;6.63;3.58;;;15.80;94.00;;;;;;6155797;23;19998;-76
2022/09/23 09:32:37;;;;;;;7.97;4.00;;;15.90;93.80;;;;;;6132248;23;19998;-76
2022/09/23 09:35:19;;;;;;;9.38;4.20;;;15.90;93.30;;;;;;6132377;23;20005;-76
2022/09/23 09:37:47;;;;;;;9.05;3.80;;;16.00;93.50;;;;;;6132841;23;19998;-76
2022/09/23 09:40:19;;;;;;;7.45;4.00;;;16.10;93.40;;;;;;6132564;23;19998;-75
2022/09/23 09:42:47;;;;;;;8.88;5.25;;;16.10;93.20;;;;;;6132930;23;20002;-75
2022/09/23 09:45:52;;;;;;;7.72;4.13;;;16.20;93.20;;;;;;6132278;23;20440;-75
2022/09/23 09:48:36;;;;;;;8.82;4.35;;;16.30;92.80;;;;;;6041817;23;20026;-75
2022/09/23 09:51:20;;;;;;;6.25;3.60;;;16.50;92.70;;;;;;6126778;23;20002;-76
2022/09/23 09:53:46;;;;;;;6.72;3.65;;;16.60;92.40;;;;;;6133062;23;20065;-77
2022/09/23 09:56:15;;;;;;;10.02;3.90;;;16.70;92.20;;;;;;6155367;23;20029;-79
2022/09/23 09:58:50;;;;;;;6.70;3.20;;;16.60;92.20;;;;;;6132664;23;20224;-78
2022/09/23 10:01:31;;;;;;;6.38;3.90;;;16.70;92.50;;;;;;6155391;23;20033;-80
2022/09/23 10:04:18;;;;;;;8.15;3.70;;;16.80;92.10;;;;;;6133053;23;20006;-77
2022/09/23 10:07:11;;;;;;;6.97;3.38;;;16.90;91.90;;;;;;6133145;23;20006;-77
2022/09/23 10:09:39;;;;;;;8.85;3.65;;;17.10;91.80;;;;;;6132929;23;20017;-80
2022/09/23 10:12:14;;;;;;;8.48;4.05;;;17.10;91.30;;;;;;6156255;23;20307;-78
2022/09/23 10:14:52;;;;;;;5.63;3.30;;;17.20;91.50;;;;;;6132741;23;20153;-79
2022/09/23 10:17:32;;;;;;;17.55;10.50;;;17.30;91.20;;;;;;6130858;23;20292;-78
2022/09/23 10:20:01;;;;;;;7.43;4.63;;;17.50;90.90;;;;;;6132889;23;19998;-79
2022/09/23 10:22:33;;;;;;;4.80;3.50;;;17.60;91.00;;;;;;6131218;23;20025;-78
2022/09/23 10:25:19;;;;;;;13.10;4.65;;;17.60;90.70;;;;;;6132096;23;20002;-78
2022/09/23 10:27:45;;;;;;;5.85;3.05;;;17.70;90.50;;;;;;6132900;23;20034;-79
2022/09/23 10:30:28;;;;;;;6.07;3.50;;;17.80;90.50;;;;;;6130892;23;20018;-81
2022/09/23 10:32:55;;;;;;;8.63;3.17;;;17.90;90.30;;;;;;6132525;23;19997;-78
2022/09/23 10:35:24;;;;;;;5.77;3.07;;;18.00;90.20;;;;;;6131993;23;20042;-79
2022/09/23 10:37:54;;;;;;;7.13;3.50;;;18.20;89.90;;;;;;6106685;23;20473;-77
2022/09/23 10:49:55;;;;;;;7.20;3.33;;;19.70;85.60;;;;;;6133640;23;20010;-77
2022/09/23 10:52:45;;;;;;;5.50;2.63;;;20.20;83.30;;;;;;6133741;23;20070;-77
2022/09/23 10:55:39;;;;;;;6.10;2.50;;;20.60;82.00;;;;;;6134348;23;20073;-77
2022/09/23 10:58:17;;;;;;;13.38;7.38;;;21.10;80.80;;;;;;6132323;23;20006;-79
2022/09/23 11:01:04;;;;;;;7.70;3.67;;;21.30;80.00;;;;;;6157143;23;20157;-77
2022/09/23 11:03:50;;;;;;;7.13;3.40;;;21.20;78.30;;;;;;6134281;23;20020;-77
2022/09/23 11:06:19;;;;;;;5.25;3.22;;;21.30;78.40;;;;;;6133181;23;20053;-77
2022/09/23 11:08:58;;;;;;;;;;;21.30;78.20;;;;;;6134557;23;20007;-78
2022/09/23 11:11:54;;;;;;;4.13;2.40;;;21.50;78.50;;;;;;6133266;23;19905;-78
2022/09/23 11:14:45;;;;;;;6.18;2.58;;;22.40;76.90;;;;;;6133944;23;20296;-78
2022/09/23 11:17:35;;;;;;;4.35;2.70;;;23.40;73.50;;;;;;6133079;23;20052;-78
2022/09/23 11:20:39;;;;;;;5.80;2.72;;;24.40;71.50;;;;;;6133687;23;20029;-78
2022/09/23 11:23:38;;;;;;;5.32;2.10;;;24.80;69.10;;;;;;6113560;23;20072;-78
2022/09/23 11:26:13;;;;;;;5.32;1.58;;;25.00;69.40;;;;;;6132864;23;20065;-77
2022/09/23 11:28:47;;;;;;;4.72;1.88;;;25.50;64.50;;;;;;6133790;23;20005;-78
2022/09/23 11:31:41;;;;;;;3.65;2.05;;;26.00;64.20;;;;;;6133198;23;20012;-77
2022/09/23 11:34:27;;;;;;;5.15;1.80;;;26.30;64.40;;;;;;6133781;23;19998;-78
2022/09/23 11:37:12;;;;;;;5.03;1.60;;;26.30;62.00;;;;;;6134332;23;20006;-80
2022/09/23 11:40:14;;;;;;;5.82;1.98;;;26.00;62.40;;;;;;6134870;23;20065;-78
2022/09/23 11:42:58;;;;;;;3.20;1.95;;;26.60;62.20;;;;;;6134878;23;20232;-80
2022/09/23 11:46:07;;;;;;;5.55;1.50;;;27.20;59.60;;;;;;6108575;23;20014;-77
2022/09/23 11:49:06;;;;;;;4.50;2.83;;;27.80;58.60;;;;;;6131172;23;20272;-77
2022/09/23 11:51:51;;;;;;;5.95;2.75;;;28.20;57.00;;;;;;6133297;23;20002;-76
2022/09/23 12:02:09;;;;;;;3.40;1.40;;;29.00;54.50;;;;;;6075362;23;20021;-78
2022/09/23 12:04:42;;;;;;;3.05;1.63;;;29.80;54.30;;;;;;6072498;23;20121;-79
2022/09/23 12:07:25;;;;;;;2.97;1.50;;;30.60;53.80;;;;;;6071969;23;20011;-78
2022/09/23 12:10:08;;;;;;;3.95;1.70;;;31.00;53.00;;;;;;6072770;23;20322;-78
2022/09/23 12:13:16;;;;;;;2.80;1.45;;;31.70;52.90;;;;;;6073511;23;20034;-78
2022/09/23 12:15:51;;;;;;;3.08;1.60;;;31.90;51.20;;;;;;6074889;23;20018;-78
2022/09/23 12:18:24;;;;;;;2.80;1.40;;;32.50;50.70;;;;;;6072311;23;20198;-77
2022/09/23 12:21:36;;;;;;;3.88;1.90;;;32.60;50.30;;;;;;6073620;23;20011;-77
2022/09/23 12:24:11;;;;;;;7.95;7.13;;;32.30;50.40;;;;;;6047185;23;20316;-78
2022/09/23 12:26:50;;;;;;;3.50;2.40;;;31.70;50.50;;;;;;6046510;23;20186;-77
2022/09/23 12:29:19;;;;;;;3.85;1.77;;;31.70;51.00;;;;;;6046385;23;20007;-77
2022/09/23 12:34:53;;;;;;;4.38;1.92;;;32.50;51.10;;;;;;6075793;23;20026;-79
2022/09/23 12:38:16;;;;;;;2.80;1.60;;;32.70;49.80;;;;;;6078877;23;20102;-79
2022/09/23 12:41:36;;;;;;;4.28;1.75;;;33.20;49.40;;;;;;6022282;23;20015;-79
2022/09/23 12:50:41;;;;;;;4.18;1.75;;;33.80;48.70;;;;;;6154584;22;20025;-79
2022/09/23 12:53:53;;;;;;;3.30;1.70;;;34.70;48.10;;;;;;6203472;23;20095;-77
2022/09/23 12:56:24;;;;;;;3.55;1.75;;;35.70;47.10;;;;;;6222352;23;20025;-77
2022/09/23 12:59:22;;;;;;;4.18;1.80;;;35.70;46.70;;;;;;6201629;23;20025;-76
2022/09/23 13:01:55;;;;;;;6.07;2.35;;;35.50;46.90;;;;;;6234232;23;20069;-78
2022/09/23 13:07:47;;;;;;;3.08;1.80;;;35.10;46.40;;;;;;6222841;23;20341;-78
2022/09/23 13:10:26;;;;;;;3.33;2.42;;;34.20;46.90;;;;;;6222714;23;20011;-77
2022/09/23 13:13:24;;;;;;;3.38;2.22;;;33.80;47.40;;;;;;6196526;23;20012;-77
2022/09/23 13:16:46;;;;;;;3.75;2.25;;;33.90;48.60;;;;;;6130404;23;20366;-78
2022/09/23 13:23:30;;;;;;;3.30;2.28;;;33.90;47.50;;;;;;6072387;23;20067;-78
2022/09/23 13:26:09;;;;;;;4.50;2.00;;;33.80;47.00;;;;;;6047127;23;20074;-77
2022/09/23 13:28:52;;;;;;;3.88;2.03;;;33.70;49.30;;;;;;6072923;23;20062;-79
2022/09/23 13:35:26;;;;;;;4.22;2.17;;;33.40;47.50;;;;;;6074952;23;20010;-78
2022/09/23 13:38:18;;;;;;;5.03;2.05;;;33.00;47.60;;;;;;6072442;23;20189;-78
2022/09/23 13:41:49;;;;;;;3.60;2.20;;;32.90;48.40;;;;;;6072876;23;20007;-78
2022/09/23 13:44:32;;;;;;;6.47;4.38;;;32.60;48.10;;;;;;6056279;23;20297;-78
2022/09/23 13:47:17;;;;;;;3.88;2.50;;;32.30;50.30;;;;;;6048827;23;20327;-78
2022/09/23 13:49:47;;;;;;;3.88;2.42;;;31.30;50.30;;;;;;6046969;23;20022;-79
2022/09/23 13:52:30;;;;;;;4.57;2.22;;;30.30;50.90;;;;;;6087938;23;20032;-78
2022/09/23 13:55:01;;;;;;;5.10;2.28;;;30.20;51.30;;;;;;6105028;23;20002;-79
2022/09/23 13:57:34;;;;;;;4.78;2.20;;;30.00;52.20;;;;;;6222331;23;20226;-78
2022/09/23 14:00:01;;;;;;;3.42;1.73;;;29.80;51.50;;;;;;6221856;23;20000;-79
2022/09/23 14:02:42;;;;;;;6.07;2.45;;;29.70;52.10;;;;;;6223922;23;20096;-79
2022/09/23 14:05:40;;;;;;;6.10;2.50;;;29.60;51.60;;;;;;6172706;23;20202;-78
2022/09/23 14:08:16;;;;;;;5.88;2.15;;;30.60;50.80;;;;;;6159883;23;20046;-79
2022/09/23 14:10:54;;;;;;;5.43;2.40;;;31.50;50.20;;;;;;6197463;23;20016;-81
2022/09/23 14:13:27;;;;;;;4.33;2.57;;;32.80;48.70;;;;;;6173094;23;20333;-79
2022/09/23 14:16:23;;;;;;;3.38;2.00;;;33.80;48.10;;;;;;6224277;23;20068;-78
2022/09/23 14:19:02;;;;;;;5.22;2.60;;;33.70;46.90;;;;;;6195275;23;20009;-79
2022/09/23 14:22:10;;;;;;;3.42;2.33;;;33.70;47.40;;;;;;6172428;23;20005;-78
2022/09/23 14:24:55;;;;;;;4.15;2.10;;;33.10;47.40;;;;;;6193303;23;20005;-80
2022/09/23 14:27:38;;;;;;;3.42;2.08;;;32.40;48.40;;;;;;6192857;23;20028;-79
2022/09/23 14:33:55;;;;;;;4.20;1.92;;;32.10;49.20;;;;;;6180902;23;20205;-79
2022/09/23 14:39:40;;;;;;;5.03;2.08;;;31.20;50.30;;;;;;6191959;23;20242;-79
2022/09/23 14:43:09;;;;;;;5.80;2.60;;;30.80;50.40;;;;;;6170241;23;20032;-78
2022/09/23 14:47:08;;;;;;;5.10;2.03;;;29.90;51.20;;;;;;6046694;23;20320;-79
2022/09/23 14:53:45;;;;;;;5.00;1.77;;;29.70;52.20;;;;;;6046616;23;20003;-79
2022/09/23 14:56:49;;;;;;;2.55;1.65;;;30.00;50.60;;;;;;6047222;23;20361;-80
2022/09/23 15:00:08;;;;;;;3.25;1.80;;;30.80;51.60;;;;;;6049933;23;20007;-77
2022/09/23 15:03:05;;;;;;;4.10;1.90;;;31.10;49.90;;;;;;5942697;24;20063;-79
2022/09/23 15:06:16;;;;;;;4.30;1.58;;;31.60;49.60;;;;;;5956185;23;20011;-77
2022/09/23 15:08:59;;;;;;;5.82;2.05;;;31.60;49.70;;;;;;6023180;23;20063;-79
2022/09/23 15:12:19;;;;;;;5.18;2.03;;;31.40;49.20;;;;;;6021768;23;20293;-79
2022/09/23 15:14:58;;;;;;;4.72;2.47;;;31.00;49.90;;;;;;5987750;23;19999;-78
2022/09/23 15:18:45;;;;;;;4.22;1.88;;;30.60;51.30;;;;;;6046320;23;20016;-79
2022/09/23 15:21:27;;;;;;;5.05;2.20;;;30.00;51.20;;;;;;5943032;23;20009;-78
2022/09/23 15:24:43;;;;;;;4.78;2.03;;;29.10;52.40;;;;;;6075930;23;20057;-79
2022/09/23 15:28:04;;;;;;;5.65;2.25;;;28.30;53.50;;;;;;5988378;24;20008;-79
2022/09/23 15:34:51;;;;;;;6.97;2.17;;;26.50;56.40;;;;;;5876215;24;20025;-78
2022/09/23 15:37:45;;;;;;;3.58;1.90;;;25.90;56.90;;;;;;5818232;24;20080;-79
2022/09/23 15:40:40;;;;;;;5.50;2.45;;;25.30;58.60;;;;;;5906875;24;20285;-79
2022/09/23 15:44:02;;;;;;;5.90;2.55;;;25.10;58.90;;;;;;5907710;24;20013;-79
2022/09/23 15:47:20;;;;;;;;;;;;;;;;;;;;;
2022/09/23 15:51:19;;;;;;;4.95;2.42;;;24.50;61.00;;;;;;5905982;24;20028;-79
2022/09/23 15:54:32;;;;;;;6.82;2.40;;;24.30;60.20;;;;;;5890237;24;20203;-78
2022/09/23 15:57:55;;;;;;;5.22;2.40;;;23.60;62.50;;;;;;5933753;24;20009;-78
2022/09/23 16:00:37;;;;;;;4.15;2.70;;;23.20;62.60;;;;;;5913482;24;20009;-77
2022/09/23 16:03:54;;;;;;;4.28;2.35;;;22.80;64.00;;;;;;5949273;23;20014;-79
2022/09/23 16:06:44;;;;;;;5.78;2.72;;;22.60;65.30;;;;;;6009745;23;20313;-78
2022/09/23 16:09:14;;;;;;;6.32;2.72;;;22.40;64.80;;;;;;6024504;23;20206;-77
2022/09/23 16:11:48;;;;;;;4.47;2.60;;;22.20;65.80;;;;;;6075356;23;20349;-79
2022/09/23 16:14:37;;;;;;;5.10;2.83;;;21.90;66.50;;;;;;6075196;23;20019;-78
2022/09/23 16:17:13;;;;;;;4.65;2.13;;;21.90;67.60;;;;;;6048510;23;20018;-75
2022/09/23 16:19:45;;;;;;;4.30;2.60;;;21.80;68.10;;;;;;6074828;23;20034;-76
2022/09/23 16:22:17;;;;;;;7.38;2.75;;;21.60;68.50;;;;;;6049933;23;20059;-75
2022/09/23 16:24:43;;;;;;;4.10;2.40;;;21.50;68.80;;;;;;6051100;23;20377;-78
2022/09/23 16:27:20;;;;;;;6.55;3.53;;;21.40;69.20;;;;;;6050474;23;20013;-76
2022/09/23 16:29:46;;;;;;;6.03;2.47;;;21.30;69.60;;;;;;6074933;23;20030;-76
2022/09/23 16:32:17;;;;;;;4.60;2.55;;;21.10;69.90;;;;;;6051736;23;20296;-79
2022/09/23 16:34:43;;;;;;;;;;;21.00;71.30;;;;;;6051780;23;20007;-76
2022/09/23 16:37:15;;;;;;;4.13;2.88;;;20.70;70.70;;;;;;6075380;23;20026;-77
2022/09/23 16:39:44;;;;;;;6.25;2.70;;;20.50;71.40;;;;;;6051086;23;20007;-76
2022/09/23 16:42:19;;;;;;;5.20;2.67;;;20.40;73.30;;;;;;6111100;23;20005;-79
2022/09/23 16:44:48;;;;;;;6.57;3.40;;;20.20;72.90;;;;;;6114213;23;20081;-76
2022/09/23 16:47:15;;;;;;;4.32;2.75;;;20.10;73.60;;;;;;6137967;23;20302;-78
2022/09/23 16:49:54;;;;;;;7.32;5.13;;;20.00;74.30;;;;;;6132555;23;20421;-76
2022/09/23 16:52:22;;;;;;;6.30;3.78;;;19.90;75.30;;;;;;6107616;23;20323;-77
2022/09/23 16:54:53;;;;;;;5.82;3.78;;;19.80;76.60;;;;;;6074136;23;20070;-77
2022/09/23 16:57:19;;;;;;;6.55;3.67;;;19.70;75.70;;;;;;6027541;23;20034;-77
2022/09/23 17:06:02;;;;;;;5.65;2.92;;;19.30;76.80;;;;;;6055224;23;20209;-76
2022/09/23 17:15:58;;;;;;;5.00;2.60;;;19.00;78.30;;;;;;6075378;23;20365;-77
2022/09/23 17:18:27;;;;;;;7.30;2.90;;;18.90;78.70;;;;;;6074857;23;20007;-76
2022/09/23 17:21:25;;;;;;;5.22;3.05;;;18.80;79.50;;;;;;6093276;23;20077;-78
2022/09/23 17:24:19;;;;;;;5.90;3.00;;;18.70;79.80;;;;;;6121828;23;20033;-80
2022/09/23 17:26:45;;;;;;;6.10;3.53;;;18.60;80.30;;;;;;6096724;23;20057;-77
2022/09/23 17:29:12;;;;;;;5.68;3.05;;;18.50;80.50;;;;;;6144439;23;20021;-78
2022/09/23 17:31:45;;;;;;;7.00;3.20;;;18.40;81.00;;;;;;6122671;23;19997;-76
2022/09/23 17:34:18;;;;;;;4.47;3.45;;;18.20;81.80;;;;;;6162072;23;20009;-77
2022/09/23 17:36:53;;;;;;;5.32;2.83;;;18.00;82.00;;;;;;6164213;23;20010;-77
2022/09/23 17:39:24;;;;;;;5.90;3.40;;;17.90;82.20;;;;;;6162397;23;20240;-75
2022/09/23 17:41:57;;;;;;;6.75;3.15;;;17.70;83.10;;;;;;6163073;23;20025;-76
2022/09/23 17:47:34;;;;;;;6.20;4.28;;;17.50;84.50;;;;;;6107726;23;20009;-76
2022/09/23 17:50:11;;;;;;;8.75;4.45;;;17.50;85.80;;;;;;6149016;23;20259;-78
2022/09/23 17:52:59;;;;;;;9.35;4.65;;;17.30;85.60;;;;;;6104547;23;20007;-77
2022/09/23 17:55:39;;;;;;;9.23;5.35;;;17.20;86.50;;;;;;6047235;23;20015;-77
2022/09/23 17:58:13;;;;;;;10.38;5.47;;;17.10;87.80;;;;;;6047435;23;20320;-77
2022/09/23 18:00:49;;;;;;;10.93;6.22;;;17.00;88.50;;;;;;6024036;23;20084;-76
2022/09/23 18:03:22;;;;;;;10.63;5.90;;;16.90;89.00;;;;;;6047269;23;20008;-77
2022/09/23 18:05:54;;;;;;;10.13;6.15;;;16.80;89.50;;;;;;6047487;23;20030;-76
2022/09/23 18:08:34;;;;;;;9.45;5.10;;;16.80;90.00;;;;;;6018575;23;20035;-76
2022/09/23 18:11:22;;;;;;;7.70;5.50;;;16.70;90.00;;;;;;5995643;23;20011;-77
2022/09/23 18:13:59;;;;;;;7.77;5.07;;;16.60;90.20;;;;;;6019168;23;20031;-77
2022/09/23 18:16:28;;;;;;;10.27;5.10;;;16.50;90.40;;;;;;5974421;23;20448;-76
2022/09/23 18:19:03;;;;;;;9.32;5.43;;;16.40;90.70;;;;;;5971479;23;20007;-77
2022/09/23 18:21:39;;;;;;;9.90;5.18;;;16.40;90.80;;;;;;5995547;23;20218;-77
2022/09/23 18:24:06;;;;;;;10.82;6.20;;;16.30;91.20;;;;;;6042062;23;20007;-77
2022/09/23 18:26:41;;;;;;;10.60;5.95;;;16.30;91.20;;;;;;6084990;23;20012;-76
2022/09/23 18:29:10;;;;;;;;;;;16.20;91.20;;;;;;6140110;23;20307;-76
2022/09/23 18:31:37;;;;;;;10.43;5.88;;;16.20;91.30;;;;;;6139008;23;19904;-78
2022/09/23 18:34:19;;;;;;;9.70;6.00;;;16.20;91.30;;;;;;6163906;23;20000;-78
2022/09/23 18:36:53;;;;;;;8.32;5.80;;;16.10;91.30;;;;;;6163904;23;20113;-78
2022/09/23 18:39:22;;;;;;;7.63;5.03;;;16.00;91.60;;;;;;6155451;23;20009;-77
2022/09/23 18:41:50;;;;;;;10.55;5.75;;;15.90;91.80;;;;;;6195784;23;19989;-75
2022/09/23 18:44:19;;;;;;;8.07;5.70;;;15.90;91.90;;;;;;6194958;23;20101;-76
2022/09/23 18:46:46;;;;;;;8.85;5.80;;;15.80;92.30;;;;;;6196074;23;19997;-77
2022/09/23 18:52:11;;;;;;;12.95;7.47;;;15.70;92.60;;;;;;6196448;23;20012;-77
2022/09/23 18:54:38;;;;;;;11.03;6.97;;;15.70;92.60;;;;;;6195321;23;20009;-77
2022/09/23 18:57:05;;;;;;;9.75;6.10;;;15.70;92.80;;;;;;6144994;23;20780;-75
2022/09/23 18:59:32;;;;;;;9.73;6.85;;;15.60;92.80;;;;;;6195120;23;20041;-76
2022/09/23 19:01:58;;;;;;;11.05;7.50;;;15.70;92.90;;;;;;6169318;23;20175;-75
2022/09/23 19:04:29;;;;;;;11.43;7.13;;;15.60;92.90;;;;;;6195410;23;20012;-76
2022/09/23 19:06:56;;;;;;;10.38;7.15;;;15.70;92.80;;;;;;6195682;23;20183;-76
2022/09/23 19:09:25;;;;;;;11.00;6.78;;;15.80;92.70;;;;;;6194416;23;20005;-77
2022/09/23 19:11:52;;;;;;;12.50;6.85;;;15.70;92.90;;;;;;6195214;23;20020;-76
2022/09/23 19:25:21;;;;;;;8.32;6.20;;;15.30;93.80;;;;;;6191579;23;20043;-77
2022/09/23 19:27:47;;;;;;;11.68;7.20;;;15.30;94.20;;;;;;6169657;23;20029;-76
2022/09/23 19:30:13;;;;;;;11.25;7.32;;;15.20;94.60;;;;;;6171844;23;20311;-75
2022/09/23 19:32:40;;;;;;;11.02;7.18;;;15.10;94.80;;;;;;6194996;23;20124;-77
2022/09/23 19:35:07;;;;;;;10.68;6.70;;;15.10;94.70;;;;;;6193292;23;20052;-75
2022/09/23 19:37:33;;;;;;;14.23;8.00;;;15.10;94.70;;;;;;6168692;23;20000;-76
2022/09/23 19:39:59;;;;;;;11.43;6.68;;;15.20;94.90;;;;;;6193962;23;20005;-78
2022/09/23 19:42:26;;;;;;;11.13;7.18;;;15.20;95.10;;;;;;6168324;23;20047;-76
2022/09/23 19:44:53;;;;;;;13.63;7.97;;;15.10;95.50;;;;;;6193971;23;20081;-76
2022/09/23 19:47:19;;;;;;;12.85;8.35;;;15.00;95.60;;;;;;6193704;23;20746;-76
2022/09/23 19:49:46;;;;;;;15.63;9.68;;;15.00;95.50;;;;;;6194315;23;20008;-77
2022/09/23 19:52:12;;;;;;;15.93;9.60;;;14.90;96.10;;;;;;6193089;23;19997;-76
2022/09/23 19:54:37;;;;;;;16.73;9.32;;;14.80;96.50;;;;;;6192076;23;20009;-76
2022/09/23 19:57:03;;;;;;;13.77;9.32;;;14.80;96.60;;;;;;6192755;23;20017;-76
2022/09/23 19:59:29;;;;;;;29.15;17.58;;;14.70;96.90;;;;;;6192496;23;20071;-76
2022/09/23 20:01:55;;;;;;;22.23;13.85;;;14.60;96.80;;;;;;6192837;23;20008;-76
2022/09/23 20:04:21;;;;;;;17.77;10.30;;;14.60;97.00;;;;;;6192887;23;20060;-76
2022/09/23 20:06:48;;;;;;;24.90;15.20;;;14.50;96.90;;;;;;6191776;23;20100;-77